sensor_id;sensor_type;location;lat;lon;timestamp;P1;durP1;ratioP1;P2;durP2;ratioP2
66667;SDS011;57205;51.438;-2.006;2022-10-16T00:00:35;12.50;;;2.28;;
66667;SDS011;57205;51.438;-2.006;2022-10-16T00:03:02;10.13;;;2.38;;
66667;SDS011;57205;51.438;-2.006;2022-10-16T00:05:28;11.60;;;2.53;;
66667;SDS011;57205;51.438;-2.006;2022-10-16T00:07:54;12.77;;;3.28;;
66667;SDS011;57205;51.438;-2.006;2022-10-16T00:10:20;9.50;;;2.33;;
66667;SDS011;57205;51.438;-2.006;2022-10-16T00:12:46;12.48;;;2.45;;
66667;SDS011;57205;51.438;-2.006;2022-10-16T00:15:12;12.55;;;2.08;;
66667;SDS011;57205;51.438;-2.006;2022-10-16T00:17:37;8.63;;;2.22;;
66667;SDS011;57205;51.438;-2.006;2022-10-16T00:20:03;7.03;;;1.55;;
66667;SDS011;57205;51.438;-2.006;2022-10-16T00:22:29;9.85;;;2.00;;
66667;SDS011;57205;51.438;-2.006;2022-10-16T00:24:55;9.18;;;1.90;;
66667;SDS011;57205;51.438;-2.006;2022-10-16T00:27:20;9.63;;;1.70;;
66667;SDS011;57205;51.438;-2.006;2022-10-16T00:29:49;11.20;;;2.30;;
66667;SDS011;57205;51.438;-2.006;2022-10-16T00:32:16;10.65;;;1.90;;
66667;SDS011;57205;51.438;-2.006;2022-10-16T00:34:42;10.35;;;2.40;;
66667;SDS011;57205;51.438;-2.006;2022-10-16T00:37:07;13.70;;;2.45;;
66667;SDS011;57205;51.438;-2.006;2022-10-16T00:39:33;8.80;;;2.10;;
66667;SDS011;57205;51.438;-2.006;2022-10-16T00:41:58;9.27;;;1.80;;
66667;SDS011;57205;51.438;-2.006;2022-10-16T00:47:57;9.10;;;1.80;;
66667;SDS011;57205;51.438;-2.006;2022-10-16T00:50:24;11.70;;;1.98;;
66667;SDS011;57205;51.438;-2.006;2022-10-16T00:52:54;8.93;;;2.40;;
66667;SDS011;57205;51.438;-2.006;2022-10-16T00:55:21;19.08;;;2.55;;
66667;SDS011;57205;51.438;-2.006;2022-10-16T00:57:47;12.20;;;2.33;;
66667;SDS011;57205;51.438;-2.006;2022-10-16T01:00:15;12.57;;;1.98;;
66667;SDS011;57205;51.438;-2.006;2022-10-16T01:02:53;8.52;;;1.92;;
66667;SDS011;57205;51.438;-2.006;2022-10-16T01:05:33;8.63;;;2.05;;
66667;SDS011;57205;51.438;-2.006;2022-10-16T01:08:13;14.02;;;2.03;;
66667;SDS011;57205;51.438;-2.006;2022-10-16T01:11:48;8.05;;;1.75;;
66667;SDS011;57205;51.438;-2.006;2022-10-16T01:13:50;5.43;;;1.80;;
66667;SDS011;57205;51.438;-2.006;2022-10-16T01:18:54;9.52;;;1.73;;
66667;SDS011;57205;51.438;-2.006;2022-10-16T01:21:29;7.20;;;1.67;;
66667;SDS011;57205;51.438;-2.006;2022-10-16T01:26:44;9.98;;;1.95;;
66667;SDS011;57205;51.438;-2.006;2022-10-16T01:29:24;7.43;;;1.58;;
66667;SDS011;57205;51.438;-2.006;2022-10-16T01:32:10;6.15;;;1.60;;
66667;SDS011;57205;51.438;-2.006;2022-10-16T01:35:04;8.05;;;1.38;;
66667;SDS011;57205;51.438;-2.006;2022-10-16T01:37:40;11.85;;;2.13;;
66667;SDS011;57205;51.438;-2.006;2022-10-16T01:40:12;11.45;;;2.33;;
66667;SDS011;57205;51.438;-2.006;2022-10-16T01:42:41;9.38;;;2.10;;
66667;SDS011;57205;51.438;-2.006;2022-10-16T01:45:12;7.53;;;1.48;;
66667;SDS011;57205;51.438;-2.006;2022-10-16T01:47:42;5.55;;;1.63;;
66667;SDS011;57205;51.438;-2.006;2022-10-16T01:50:09;7.93;;;1.17;;
66667;SDS011;57205;51.438;-2.006;2022-10-16T01:52:39;4.32;;;2.00;;
66667;SDS011;57205;51.438;-2.006;2022-10-16T01:55:08;7.80;;;1.75;;
66667;SDS011;57205;51.438;-2.006;2022-10-16T01:57:38;10.80;;;1.60;;
66667;SDS011;57205;51.438;-2.006;2022-10-16T02:00:09;9.73;;;1.45;;
66667;SDS011;57205;51.438;-2.006;2022-10-16T02:02:36;6.40;;;1.75;;
66667;SDS011;57205;51.438;-2.006;2022-10-16T02:05:26;8.35;;;2.13;;
66667;SDS011;57205;51.438;-2.006;2022-10-16T02:07:52;4.72;;;1.42;;
66667;SDS011;57205;51.438;-2.006;2022-10-16T02:10:18;6.93;;;1.45;;
66667;SDS011;57205;51.438;-2.006;2022-10-16T02:13:27;7.50;;;1.50;;
66667;SDS011;57205;51.438;-2.006;2022-10-16T02:15:38;9.20;;;1.88;;
66667;SDS011;57205;51.438;-2.006;2022-10-16T02:18:05;6.95;;;1.45;;
66667;SDS011;57205;51.438;-2.006;2022-10-16T02:20:32;5.90;;;1.65;;
66667;SDS011;57205;51.438;-2.006;2022-10-16T02:23:04;7.47;;;1.85;;
66667;SDS011;57205;51.438;-2.006;2022-10-16T02:25:37;7.30;;;1.65;;
66667;SDS011;57205;51.438;-2.006;2022-10-16T02:28:16;8.65;;;2.17;;
66667;SDS011;57205;51.438;-2.006;2022-10-16T02:30:51;5.70;;;1.23;;
66667;SDS011;57205;51.438;-2.006;2022-10-16T02:33:29;4.95;;;1.23;;
66667;SDS011;57205;51.438;-2.006;2022-10-16T02:35:56;9.18;;;1.55;;
66667;SDS011;57205;51.438;-2.006;2022-10-16T02:38:23;9.52;;;1.48;;
66667;SDS011;57205;51.438;-2.006;2022-10-16T02:40:50;7.07;;;2.00;;
66667;SDS011;57205;51.438;-2.006;2022-10-16T02:43:16;8.73;;;2.25;;
66667;SDS011;57205;51.438;-2.006;2022-10-16T02:45:42;9.02;;;1.45;;
66667;SDS011;57205;51.438;-2.006;2022-10-16T02:48:08;9.23;;;2.30;;
66667;SDS011;57205;51.438;-2.006;2022-10-16T02:50:34;8.48;;;1.40;;
66667;SDS011;57205;51.438;-2.006;2022-10-16T02:52:59;8.88;;;1.90;;
66667;SDS011;57205;51.438;-2.006;2022-10-16T02:55:25;5.07;;;2.08;;
66667;SDS011;57205;51.438;-2.006;2022-10-16T02:57:51;8.73;;;1.60;;
66667;SDS011;57205;51.438;-2.006;2022-10-16T03:00:17;8.00;;;2.08;;
66667;SDS011;57205;51.438;-2.006;2022-10-16T03:02:43;9.07;;;1.60;;
66667;SDS011;57205;51.438;-2.006;2022-10-16T03:05:09;7.22;;;1.52;;
66667;SDS011;57205;51.438;-2.006;2022-10-16T03:07:35;4.80;;;1.20;;
66667;SDS011;57205;51.438;-2.006;2022-10-16T03:10:00;6.65;;;2.00;;
66667;SDS011;57205;51.438;-2.006;2022-10-16T03:12:26;7.47;;;2.03;;
66667;SDS011;57205;51.438;-2.006;2022-10-16T03:14:52;5.50;;;1.55;;
66667;SDS011;57205;51.438;-2.006;2022-10-16T03:17:17;5.85;;;1.60;;
66667;SDS011;57205;51.438;-2.006;2022-10-16T03:19:43;7.75;;;1.63;;
66667;SDS011;57205;51.438;-2.006;2022-10-16T03:22:08;6.30;;;1.65;;
66667;SDS011;57205;51.438;-2.006;2022-10-16T03:24:34;8.20;;;1.60;;
66667;SDS011;57205;51.438;-2.006;2022-10-16T03:26:59;13.02;;;2.47;;
66667;SDS011;57205;51.438;-2.006;2022-10-16T03:29:25;8.18;;;1.73;;
66667;SDS011;57205;51.438;-2.006;2022-10-16T03:31:51;6.00;;;2.15;;
66667;SDS011;57205;51.438;-2.006;2022-10-16T03:34:16;6.65;;;1.52;;
66667;SDS011;57205;51.438;-2.006;2022-10-16T03:36:42;8.15;;;1.52;;
66667;SDS011;57205;51.438;-2.006;2022-10-16T03:39:07;8.80;;;1.55;;
66667;SDS011;57205;51.438;-2.006;2022-10-16T03:41:32;7.50;;;1.55;;
66667;SDS011;57205;51.438;-2.006;2022-10-16T03:43:58;12.82;;;2.10;;
66667;SDS011;57205;51.438;-2.006;2022-10-16T03:46:24;6.72;;;1.88;;
66667;SDS011;57205;51.438;-2.006;2022-10-16T03:48:50;9.25;;;1.73;;
66667;SDS011;57205;51.438;-2.006;2022-10-16T03:51:15;6.30;;;1.80;;
66667;SDS011;57205;51.438;-2.006;2022-10-16T03:53:41;5.78;;;1.65;;
66667;SDS011;57205;51.438;-2.006;2022-10-16T03:56:06;12.30;;;1.90;;
66667;SDS011;57205;51.438;-2.006;2022-10-16T03:58:32;3.50;;;1.25;;
66667;SDS011;57205;51.438;-2.006;2022-10-16T04:00:57;9.60;;;1.55;;
66667;SDS011;57205;51.438;-2.006;2022-10-16T04:03:23;9.90;;;1.80;;
66667;SDS011;57205;51.438;-2.006;2022-10-16T04:05:48;8.15;;;1.50;;
66667;SDS011;57205;51.438;-2.006;2022-10-16T04:08:14;12.38;;;1.70;;
66667;SDS011;57205;51.438;-2.006;2022-10-16T04:10:41;7.82;;;1.70;;
66667;SDS011;57205;51.438;-2.006;2022-10-16T04:13:08;11.60;;;2.45;;
66667;SDS011;57205;51.438;-2.006;2022-10-16T04:15:33;9.02;;;2.00;;
66667;SDS011;57205;51.438;-2.006;2022-10-16T04:17:58;9.23;;;1.60;;
66667;SDS011;57205;51.438;-2.006;2022-10-16T04:20:24;6.00;;;1.92;;
66667;SDS011;57205;51.438;-2.006;2022-10-16T04:22:49;9.38;;;1.98;;
66667;SDS011;57205;51.438;-2.006;2022-10-16T04:25:15;3.35;;;1.48;;
66667;SDS011;57205;51.438;-2.006;2022-10-16T04:27:40;9.23;;;1.83;;
66667;SDS011;57205;51.438;-2.006;2022-10-16T04:30:06;10.43;;;1.63;;
66667;SDS011;57205;51.438;-2.006;2022-10-16T04:32:32;9.63;;;1.38;;
66667;SDS011;57205;51.438;-2.006;2022-10-16T04:34:57;5.18;;;2.00;;
66667;SDS011;57205;51.438;-2.006;2022-10-16T04:37:23;7.00;;;1.58;;
66667;SDS011;57205;51.438;-2.006;2022-10-16T04:39:50;3.67;;;1.27;;
66667;SDS011;57205;51.438;-2.006;2022-10-16T04:42:15;8.13;;;1.42;;
66667;SDS011;57205;51.438;-2.006;2022-10-16T04:44:41;12.13;;;1.55;;
66667;SDS011;57205;51.438;-2.006;2022-10-16T04:47:06;6.18;;;1.67;;
66667;SDS011;57205;51.438;-2.006;2022-10-16T04:49:32;7.03;;;1.48;;
66667;SDS011;57205;51.438;-2.006;2022-10-16T04:51:57;6.03;;;1.73;;
66667;SDS011;57205;51.438;-2.006;2022-10-16T04:54:22;8.15;;;1.58;;
66667;SDS011;57205;51.438;-2.006;2022-10-16T04:56:48;5.95;;;1.58;;
66667;SDS011;57205;51.438;-2.006;2022-10-16T04:59:15;7.07;;;2.08;;
66667;SDS011;57205;51.438;-2.006;2022-10-16T05:01:42;9.50;;;2.90;;
66667;SDS011;57205;51.438;-2.006;2022-10-16T05:04:07;8.15;;;1.55;;
66667;SDS011;57205;51.438;-2.006;2022-10-16T05:06:33;7.78;;;1.35;;
66667;SDS011;57205;51.438;-2.006;2022-10-16T05:08:59;7.93;;;1.33;;
66667;SDS011;57205;51.438;-2.006;2022-10-16T05:11:24;11.93;;;1.73;;
66667;SDS011;57205;51.438;-2.006;2022-10-16T05:13:49;9.20;;;2.72;;
66667;SDS011;57205;51.438;-2.006;2022-10-16T05:16:15;5.68;;;1.67;;
66667;SDS011;57205;51.438;-2.006;2022-10-16T05:18:41;7.07;;;1.58;;
66667;SDS011;57205;51.438;-2.006;2022-10-16T05:21:06;9.82;;;1.52;;
66667;SDS011;57205;51.438;-2.006;2022-10-16T05:23:32;7.25;;;1.73;;
66667;SDS011;57205;51.438;-2.006;2022-10-16T05:25:57;7.70;;;1.45;;
66667;SDS011;57205;51.438;-2.006;2022-10-16T05:28:24;9.23;;;1.90;;
66667;SDS011;57205;51.438;-2.006;2022-10-16T05:30:53;10.02;;;1.70;;
66667;SDS011;57205;51.438;-2.006;2022-10-16T05:33:19;8.52;;;1.73;;
66667;SDS011;57205;51.438;-2.006;2022-10-16T05:35:46;12.43;;;1.80;;
66667;SDS011;57205;51.438;-2.006;2022-10-16T05:38:11;9.90;;;1.70;;
66667;SDS011;57205;51.438;-2.006;2022-10-16T05:40:36;5.68;;;1.55;;
66667;SDS011;57205;51.438;-2.006;2022-10-16T05:43:02;6.28;;;1.63;;
66667;SDS011;57205;51.438;-2.006;2022-10-16T05:45:28;5.47;;;2.38;;
66667;SDS011;57205;51.438;-2.006;2022-10-16T05:47:53;9.00;;;2.42;;
66667;SDS011;57205;51.438;-2.006;2022-10-16T05:50:18;4.03;;;1.10;;
66667;SDS011;57205;51.438;-2.006;2022-10-16T05:52:44;14.20;;;2.17;;
66667;SDS011;57205;51.438;-2.006;2022-10-16T05:55:09;6.43;;;1.60;;
66667;SDS011;57205;51.438;-2.006;2022-10-16T05:57:35;10.52;;;1.98;;
66667;SDS011;57205;51.438;-2.006;2022-10-16T06:00:00;12.10;;;2.25;;
66667;SDS011;57205;51.438;-2.006;2022-10-16T06:02:26;7.53;;;2.58;;
66667;SDS011;57205;51.438;-2.006;2022-10-16T06:04:53;8.88;;;2.00;;
66667;SDS011;57205;51.438;-2.006;2022-10-16T06:07:19;4.95;;;1.42;;
66667;SDS011;57205;51.438;-2.006;2022-10-16T06:09:47;8.75;;;1.83;;
66667;SDS011;57205;51.438;-2.006;2022-10-16T06:12:13;8.93;;;1.73;;
66667;SDS011;57205;51.438;-2.006;2022-10-16T06:14:39;7.63;;;2.00;;
66667;SDS011;57205;51.438;-2.006;2022-10-16T06:17:04;8.50;;;1.88;;
66667;SDS011;57205;51.438;-2.006;2022-10-16T06:19:30;9.55;;;1.60;;
66667;SDS011;57205;51.438;-2.006;2022-10-16T06:21:56;10.05;;;1.88;;
66667;SDS011;57205;51.438;-2.006;2022-10-16T06:24:24;11.55;;;2.15;;
66667;SDS011;57205;51.438;-2.006;2022-10-16T06:26:50;9.13;;;2.00;;
66667;SDS011;57205;51.438;-2.006;2022-10-16T06:29:15;9.77;;;1.52;;
66667;SDS011;57205;51.438;-2.006;2022-10-16T06:31:41;8.82;;;1.65;;
66667;SDS011;57205;51.438;-2.006;2022-10-16T06:34:08;6.43;;;1.60;;
66667;SDS011;57205;51.438;-2.006;2022-10-16T06:36:35;7.57;;;1.60;;
66667;SDS011;57205;51.438;-2.006;2022-10-16T06:39:02;8.48;;;1.70;;
66667;SDS011;57205;51.438;-2.006;2022-10-16T06:41:28;10.80;;;1.92;;
66667;SDS011;57205;51.438;-2.006;2022-10-16T06:43:53;9.02;;;1.92;;
66667;SDS011;57205;51.438;-2.006;2022-10-16T06:46:20;9.32;;;1.98;;
66667;SDS011;57205;51.438;-2.006;2022-10-16T06:48:47;6.15;;;1.90;;
66667;SDS011;57205;51.438;-2.006;2022-10-16T06:51:16;9.75;;;2.10;;
66667;SDS011;57205;51.438;-2.006;2022-10-16T06:53:44;6.82;;;1.55;;
66667;SDS011;57205;51.438;-2.006;2022-10-16T06:56:15;4.40;;;1.52;;
66667;SDS011;57205;51.438;-2.006;2022-10-16T06:58:43;12.27;;;2.10;;
66667;SDS011;57205;51.438;-2.006;2022-10-16T07:01:10;9.40;;;1.80;;
66667;SDS011;57205;51.438;-2.006;2022-10-16T07:03:36;6.60;;;1.90;;
66667;SDS011;57205;51.438;-2.006;2022-10-16T07:06:04;9.65;;;2.65;;
66667;SDS011;57205;51.438;-2.006;2022-10-16T07:08:35;65.60;;;36.00;;
66667;SDS011;57205;51.438;-2.006;2022-10-16T07:11:06;62.53;;;36.40;;
66667;SDS011;57205;51.438;-2.006;2022-10-16T07:13:34;26.50;;;18.52;;
66667;SDS011;57205;51.438;-2.006;2022-10-16T07:16:08;7.25;;;2.13;;
66667;SDS011;57205;51.438;-2.006;2022-10-16T07:18:34;7.00;;;1.70;;
66667;SDS011;57205;51.438;-2.006;2022-10-16T07:21:04;9.90;;;1.92;;
66667;SDS011;57205;51.438;-2.006;2022-10-16T07:23:30;9.23;;;2.30;;
66667;SDS011;57205;51.438;-2.006;2022-10-16T07:25:56;9.82;;;1.85;;
66667;SDS011;57205;51.438;-2.006;2022-10-16T07:28:21;8.02;;;1.90;;
66667;SDS011;57205;51.438;-2.006;2022-10-16T07:30:47;8.85;;;2.22;;
66667;SDS011;57205;51.438;-2.006;2022-10-16T07:33:13;11.13;;;1.85;;
66667;SDS011;57205;51.438;-2.006;2022-10-16T07:35:47;7.80;;;1.85;;
66667;SDS011;57205;51.438;-2.006;2022-10-16T07:38:14;7.95;;;1.80;;
66667;SDS011;57205;51.438;-2.006;2022-10-16T07:40:39;6.13;;;1.80;;
66667;SDS011;57205;51.438;-2.006;2022-10-16T07:43:05;4.20;;;1.30;;
66667;SDS011;57205;51.438;-2.006;2022-10-16T07:45:30;9.75;;;1.50;;
66667;SDS011;57205;51.438;-2.006;2022-10-16T07:47:56;7.43;;;1.88;;
66667;SDS011;57205;51.438;-2.006;2022-10-16T07:50:21;12.30;;;2.05;;
66667;SDS011;57205;51.438;-2.006;2022-10-16T07:52:46;8.80;;;1.77;;
66667;SDS011;57205;51.438;-2.006;2022-10-16T07:55:12;7.43;;;1.60;;
66667;SDS011;57205;51.438;-2.006;2022-10-16T07:57:38;10.88;;;2.17;;
66667;SDS011;57205;51.438;-2.006;2022-10-16T08:00:03;7.75;;;1.98;;
66667;SDS011;57205;51.438;-2.006;2022-10-16T08:02:29;6.05;;;1.95;;
66667;SDS011;57205;51.438;-2.006;2022-10-16T08:04:56;11.02;;;2.25;;
66667;SDS011;57205;51.438;-2.006;2022-10-16T08:07:21;8.90;;;2.10;;
66667;SDS011;57205;51.438;-2.006;2022-10-16T08:09:48;5.55;;;1.73;;
66667;SDS011;57205;51.438;-2.006;2022-10-16T08:12:15;7.88;;;2.63;;
66667;SDS011;57205;51.438;-2.006;2022-10-16T08:14:40;8.75;;;1.85;;
66667;SDS011;57205;51.438;-2.006;2022-10-16T08:17:06;6.65;;;1.70;;
66667;SDS011;57205;51.438;-2.006;2022-10-16T08:19:31;17.02;;;9.93;;
66667;SDS011;57205;51.438;-2.006;2022-10-16T08:21:59;6.97;;;2.38;;
66667;SDS011;57205;51.438;-2.006;2022-10-16T08:24:24;11.77;;;3.03;;
66667;SDS011;57205;51.438;-2.006;2022-10-16T08:26:53;5.97;;;1.88;;
66667;SDS011;57205;51.438;-2.006;2022-10-16T08:29:19;7.70;;;1.58;;
66667;SDS011;57205;51.438;-2.006;2022-10-16T08:31:44;9.80;;;1.85;;
66667;SDS011;57205;51.438;-2.006;2022-10-16T08:34:10;7.38;;;2.28;;
66667;SDS011;57205;51.438;-2.006;2022-10-16T08:36:35;9.23;;;2.50;;
66667;SDS011;57205;51.438;-2.006;2022-10-16T08:39:01;5.97;;;1.80;;
66667;SDS011;57205;51.438;-2.006;2022-10-16T08:47:23;12.30;;;2.75;;
66667;SDS011;57205;51.438;-2.006;2022-10-16T08:49:59;8.70;;;2.15;;
66667;SDS011;57205;51.438;-2.006;2022-10-16T08:52:32;7.05;;;1.65;;
66667;SDS011;57205;51.438;-2.006;2022-10-16T08:55:00;7.55;;;1.88;;
66667;SDS011;57205;51.438;-2.006;2022-10-16T08:57:27;7.97;;;1.65;;
66667;SDS011;57205;51.438;-2.006;2022-10-16T08:59:53;10.35;;;2.63;;
66667;SDS011;57205;51.438;-2.006;2022-10-16T09:02:37;7.22;;;1.95;;
66667;SDS011;57205;51.438;-2.006;2022-10-16T09:13:21;7.25;;;2.08;;
66667;SDS011;57205;51.438;-2.006;2022-10-16T09:21:39;9.32;;;2.28;;
66667;SDS011;57205;51.438;-2.006;2022-10-16T09:24:14;6.53;;;2.05;;
66667;SDS011;57205;51.438;-2.006;2022-10-16T09:26:42;6.78;;;2.05;;
66667;SDS011;57205;51.438;-2.006;2022-10-16T09:29:15;11.57;;;3.67;;
66667;SDS011;57205;51.438;-2.006;2022-10-16T09:31:45;8.30;;;2.17;;
66667;SDS011;57205;51.438;-2.006;2022-10-16T09:34:16;8.68;;;2.33;;
66667;SDS011;57205;51.438;-2.006;2022-10-16T09:36:49;7.25;;;1.92;;
66667;SDS011;57205;51.438;-2.006;2022-10-16T09:39:16;9.80;;;2.88;;
66667;SDS011;57205;51.438;-2.006;2022-10-16T09:41:42;9.00;;;1.70;;
66667;SDS011;57205;51.438;-2.006;2022-10-16T09:44:21;9.15;;;2.08;;
66667;SDS011;57205;51.438;-2.006;2022-10-16T09:47:00;5.47;;;1.50;;
66667;SDS011;57205;51.438;-2.006;2022-10-16T09:49:30;6.53;;;1.30;;
66667;SDS011;57205;51.438;-2.006;2022-10-16T09:52:03;7.40;;;2.08;;
66667;SDS011;57205;51.438;-2.006;2022-10-16T09:54:30;6.53;;;2.03;;
66667;SDS011;57205;51.438;-2.006;2022-10-16T09:57:06;11.07;;;2.10;;
66667;SDS011;57205;51.438;-2.006;2022-10-16T09:59:45;6.60;;;1.77;;
66667;SDS011;57205;51.438;-2.006;2022-10-16T10:02:12;7.53;;;1.92;;
66667;SDS011;57205;51.438;-2.006;2022-10-16T10:04:41;6.85;;;1.98;;
66667;SDS011;57205;51.438;-2.006;2022-10-16T10:07:20;6.82;;;1.83;;
66667;SDS011;57205;51.438;-2.006;2022-10-16T10:09:51;8.02;;;1.83;;
66667;SDS011;57205;51.438;-2.006;2022-10-16T10:12:21;5.40;;;1.67;;
66667;SDS011;57205;51.438;-2.006;2022-10-16T10:14:50;6.28;;;1.58;;
66667;SDS011;57205;51.438;-2.006;2022-10-16T10:17:19;6.70;;;1.70;;
66667;SDS011;57205;51.438;-2.006;2022-10-16T10:19:48;6.63;;;1.92;;
66667;SDS011;57205;51.438;-2.006;2022-10-16T10:22:23;7.55;;;1.65;;
66667;SDS011;57205;51.438;-2.006;2022-10-16T10:32:41;8.52;;;1.38;;
66667;SDS011;57205;51.438;-2.006;2022-10-16T10:35:19;7.13;;;1.60;;
66667;SDS011;57205;51.438;-2.006;2022-10-16T10:40:52;5.03;;;1.48;;
66667;SDS011;57205;51.438;-2.006;2022-10-16T10:44:36;8.80;;;2.47;;
66667;SDS011;57205;51.438;-2.006;2022-10-16T11:02:38;16.25;;;2.08;;
66667;SDS011;57205;51.438;-2.006;2022-10-16T11:05:18;7.95;;;1.80;;
66667;SDS011;57205;51.438;-2.006;2022-10-16T11:08:00;9.07;;;1.80;;
66667;SDS011;57205;51.438;-2.006;2022-10-16T11:13:38;5.53;;;1.90;;
66667;SDS011;57205;51.438;-2.006;2022-10-16T11:16:13;10.80;;;2.92;;
66667;SDS011;57205;51.438;-2.006;2022-10-16T11:18:49;11.77;;;1.67;;
66667;SDS011;57205;51.438;-2.006;2022-10-16T11:21:21;6.53;;;1.57;;
66667;SDS011;57205;51.438;-2.006;2022-10-16T11:26:26;5.88;;;1.30;;
66667;SDS011;57205;51.438;-2.006;2022-10-16T11:28:57;10.50;;;1.90;;
66667;SDS011;57205;51.438;-2.006;2022-10-16T11:31:32;6.55;;;1.40;;
66667;SDS011;57205;51.438;-2.006;2022-10-16T11:34:15;7.72;;;1.55;;
66667;SDS011;57205;51.438;-2.006;2022-10-16T11:39:12;7.10;;;1.75;;
66667;SDS011;57205;51.438;-2.006;2022-10-16T11:41:47;9.07;;;1.30;;
66667;SDS011;57205;51.438;-2.006;2022-10-16T11:46:58;8.38;;;1.88;;
66667;SDS011;57205;51.438;-2.006;2022-10-16T11:49:33;10.15;;;1.67;;
66667;SDS011;57205;51.438;-2.006;2022-10-16T11:54:41;6.85;;;1.48;;
66667;SDS011;57205;51.438;-2.006;2022-10-16T11:58:01;8.57;;;1.38;;
66667;SDS011;57205;51.438;-2.006;2022-10-16T12:08:13;6.35;;;1.25;;
66667;SDS011;57205;51.438;-2.006;2022-10-16T12:10:42;4.10;;;1.35;;
66667;SDS011;57205;51.438;-2.006;2022-10-16T12:18:37;7.65;;;1.55;;
66667;SDS011;57205;51.438;-2.006;2022-10-16T12:21:03;6.38;;;1.55;;
66667;SDS011;57205;51.438;-2.006;2022-10-16T12:23:33;6.22;;;1.55;;
66667;SDS011;57205;51.438;-2.006;2022-10-16T12:26:02;5.53;;;1.40;;
66667;SDS011;57205;51.438;-2.006;2022-10-16T12:28:29;5.28;;;1.55;;
66667;SDS011;57205;51.438;-2.006;2022-10-16T12:30:58;6.95;;;2.00;;
66667;SDS011;57205;51.438;-2.006;2022-10-16T12:33:29;9.90;;;1.83;;
66667;SDS011;57205;51.438;-2.006;2022-10-16T12:35:58;4.53;;;1.23;;
66667;SDS011;57205;51.438;-2.006;2022-10-16T12:38:44;10.48;;;1.65;;
66667;SDS011;57205;51.438;-2.006;2022-10-16T12:41:23;6.70;;;1.45;;
66667;SDS011;57205;51.438;-2.006;2022-10-16T12:43:51;12.95;;;2.42;;
66667;SDS011;57205;51.438;-2.006;2022-10-16T12:48:42;7.20;;;1.80;;
66667;SDS011;57205;51.438;-2.006;2022-10-16T12:51:51;8.43;;;1.88;;
66667;SDS011;57205;51.438;-2.006;2022-10-16T12:54:34;6.35;;;1.50;;
66667;SDS011;57205;51.438;-2.006;2022-10-16T13:07:42;8.02;;;1.90;;
66667;SDS011;57205;51.438;-2.006;2022-10-16T13:15:49;4.25;;;1.38;;
66667;SDS011;57205;51.438;-2.006;2022-10-16T13:18:31;10.10;;;2.85;;
66667;SDS011;57205;51.438;-2.006;2022-10-16T13:21:19;12.98;;;1.20;;
66667;SDS011;57205;51.438;-2.006;2022-10-16T13:26:40;6.15;;;2.05;;
66667;SDS011;57205;51.438;-2.006;2022-10-16T13:29:06;10.13;;;1.52;;
66667;SDS011;57205;51.438;-2.006;2022-10-16T13:31:32;5.82;;;1.25;;
66667;SDS011;57205;51.438;-2.006;2022-10-16T13:33:59;8.95;;;1.95;;
66667;SDS011;57205;51.438;-2.006;2022-10-16T13:36:27;11.48;;;2.38;;
66667;SDS011;57205;51.438;-2.006;2022-10-16T13:39:00;7.60;;;1.60;;
66667;SDS011;57205;51.438;-2.006;2022-10-16T13:41:32;5.88;;;1.80;;
66667;SDS011;57205;51.438;-2.006;2022-10-16T13:43:58;5.25;;;1.30;;
66667;SDS011;57205;51.438;-2.006;2022-10-16T13:46:24;10.52;;;2.75;;
66667;SDS011;57205;51.438;-2.006;2022-10-16T13:49:00;12.77;;;1.90;;
66667;SDS011;57205;51.438;-2.006;2022-10-16T13:51:28;7.60;;;1.95;;
66667;SDS011;57205;51.438;-2.006;2022-10-16T13:53:55;5.78;;;1.48;;
66667;SDS011;57205;51.438;-2.006;2022-10-16T13:56:25;5.40;;;1.20;;
66667;SDS011;57205;51.438;-2.006;2022-10-16T13:59:00;3.10;;;1.13;;
66667;SDS011;57205;51.438;-2.006;2022-10-16T14:01:31;5.47;;;1.90;;
66667;SDS011;57205;51.438;-2.006;2022-10-16T14:04:07;5.93;;;2.05;;
66667;SDS011;57205;51.438;-2.006;2022-10-16T14:06:35;14.23;;;2.75;;
66667;SDS011;57205;51.438;-2.006;2022-10-16T14:09:08;9.52;;;1.83;;
66667;SDS011;57205;51.438;-2.006;2022-10-16T14:11:52;8.10;;;1.85;;
66667;SDS011;57205;51.438;-2.006;2022-10-16T14:14:20;5.07;;;1.58;;
66667;SDS011;57205;51.438;-2.006;2022-10-16T14:16:47;5.35;;;1.70;;
66667;SDS011;57205;51.438;-2.006;2022-10-16T14:19:15;7.80;;;1.52;;
66667;SDS011;57205;51.438;-2.006;2022-10-16T14:21:42;6.63;;;1.48;;
66667;SDS011;57205;51.438;-2.006;2022-10-16T14:24:12;8.80;;;1.80;;
66667;SDS011;57205;51.438;-2.006;2022-10-16T14:26:42;7.22;;;1.38;;
66667;SDS011;57205;51.438;-2.006;2022-10-16T14:29:11;8.13;;;1.80;;
66667;SDS011;57205;51.438;-2.006;2022-10-16T14:31:39;5.68;;;1.70;;
66667;SDS011;57205;51.438;-2.006;2022-10-16T14:34:22;7.47;;;1.67;;
66667;SDS011;57205;51.438;-2.006;2022-10-16T14:36:49;8.02;;;2.20;;
66667;SDS011;57205;51.438;-2.006;2022-10-16T14:39:19;6.43;;;1.98;;
66667;SDS011;57205;51.438;-2.006;2022-10-16T14:41:48;10.70;;;1.83;;
66667;SDS011;57205;51.438;-2.006;2022-10-16T14:44:14;9.35;;;2.22;;
66667;SDS011;57205;51.438;-2.006;2022-10-16T14:46:43;9.25;;;2.80;;
66667;SDS011;57205;51.438;-2.006;2022-10-16T14:51:35;6.57;;;2.53;;
66667;SDS011;57205;51.438;-2.006;2022-10-16T14:54:01;7.88;;;2.97;;
66667;SDS011;57205;51.438;-2.006;2022-10-16T14:56:32;7.20;;;2.70;;
66667;SDS011;57205;51.438;-2.006;2022-10-16T14:59:10;9.05;;;2.22;;
66667;SDS011;57205;51.438;-2.006;2022-10-16T15:01:49;8.63;;;1.77;;
66667;SDS011;57205;51.438;-2.006;2022-10-16T15:04:15;7.53;;;1.90;;
66667;SDS011;57205;51.438;-2.006;2022-10-16T15:06:42;12.27;;;2.45;;
66667;SDS011;57205;51.438;-2.006;2022-10-16T15:09:08;6.57;;;1.80;;
66667;SDS011;57205;51.438;-2.006;2022-10-16T15:11:33;10.60;;;1.42;;
66667;SDS011;57205;51.438;-2.006;2022-10-16T15:13:59;5.45;;;1.92;;
66667;SDS011;57205;51.438;-2.006;2022-10-16T15:16:24;7.80;;;1.90;;
66667;SDS011;57205;51.438;-2.006;2022-10-16T15:18:50;7.00;;;1.70;;
66667;SDS011;57205;51.438;-2.006;2022-10-16T15:21:34;11.18;;;2.40;;
66667;SDS011;57205;51.438;-2.006;2022-10-16T15:23:59;10.70;;;2.33;;
66667;SDS011;57205;51.438;-2.006;2022-10-16T15:26:26;10.65;;;2.08;;
66667;SDS011;57205;51.438;-2.006;2022-10-16T15:28:52;10.77;;;2.30;;
66667;SDS011;57205;51.438;-2.006;2022-10-16T15:31:18;5.88;;;1.55;;
66667;SDS011;57205;51.438;-2.006;2022-10-16T15:33:44;7.07;;;1.90;;
66667;SDS011;57205;51.438;-2.006;2022-10-16T15:36:12;9.68;;;2.30;;
66667;SDS011;57205;51.438;-2.006;2022-10-16T15:38:38;7.82;;;2.15;;
66667;SDS011;57205;51.438;-2.006;2022-10-16T15:41:03;11.98;;;2.50;;
66667;SDS011;57205;51.438;-2.006;2022-10-16T15:43:29;10.45;;;2.95;;
66667;SDS011;57205;51.438;-2.006;2022-10-16T15:45:59;8.93;;;2.13;;
66667;SDS011;57205;51.438;-2.006;2022-10-16T15:48:26;8.18;;;2.05;;
66667;SDS011;57205;51.438;-2.006;2022-10-16T15:50:51;9.88;;;2.50;;
66667;SDS011;57205;51.438;-2.006;2022-10-16T15:53:17;9.50;;;2.70;;
66667;SDS011;57205;51.438;-2.006;2022-10-16T15:55:42;10.80;;;2.90;;
66667;SDS011;57205;51.438;-2.006;2022-10-16T15:58:07;6.45;;;2.17;;
66667;SDS011;57205;51.438;-2.006;2022-10-16T16:00:33;12.85;;;2.15;;
66667;SDS011;57205;51.438;-2.006;2022-10-16T16:02:58;13.07;;;2.92;;
66667;SDS011;57205;51.438;-2.006;2022-10-16T16:05:24;6.82;;;1.73;;
66667;SDS011;57205;51.438;-2.006;2022-10-16T16:07:50;12.10;;;2.97;;
66667;SDS011;57205;51.438;-2.006;2022-10-16T16:10:15;9.75;;;2.42;;
66667;SDS011;57205;51.438;-2.006;2022-10-16T16:12:42;11.15;;;2.40;;
66667;SDS011;57205;51.438;-2.006;2022-10-16T16:15:08;8.25;;;2.10;;
66667;SDS011;57205;51.438;-2.006;2022-10-16T16:17:34;8.43;;;2.58;;
66667;SDS011;57205;51.438;-2.006;2022-10-16T16:20:00;6.75;;;1.77;;
66667;SDS011;57205;51.438;-2.006;2022-10-16T16:22:26;14.57;;;2.42;;
66667;SDS011;57205;51.438;-2.006;2022-10-16T16:24:52;7.30;;;1.70;;
66667;SDS011;57205;51.438;-2.006;2022-10-16T16:27:18;8.07;;;1.75;;